sensor_id;sensor_type;location;lat;lon;timestamp;P1;durP1;ratioP1;P2;durP2;ratioP2
31210;SDS011;17836;50.948;3.946;2022-12-18T00:00:26;108.07;;;54.13;;
31210;SDS011;17836;50.948;3.946;2022-12-18T00:02:52;100.80;;;53.20;;
31210;SDS011;17836;50.948;3.946;2022-12-18T00:05:17;105.93;;;55.87;;
31210;SDS011;17836;50.948;3.946;2022-12-18T00:07:42;107.43;;;55.87;;
31210;SDS011;17836;50.948;3.946;2022-12-18T00:10:08;109.18;;;55.90;;
31210;SDS011;17836;50.948;3.946;2022-12-18T00:12:33;114.85;;;56.83;;
31210;SDS011;17836;50.948;3.946;2022-12-18T00:14:59;111.85;;;56.53;;
31210;SDS011;17836;50.948;3.946;2022-12-18T00:17:24;113.75;;;57.67;;
31210;SDS011;17836;50.948;3.946;2022-12-18T00:19:49;112.32;;;53.75;;
31210;SDS011;17836;50.948;3.946;2022-12-18T00:22:15;113.53;;;57.30;;
31210;SDS011;17836;50.948;3.946;2022-12-18T00:24:43;111.43;;;55.63;;
31210;SDS011;17836;50.948;3.946;2022-12-18T00:27:08;113.93;;;56.13;;
31210;SDS011;17836;50.948;3.946;2022-12-18T00:29:34;112.50;;;57.55;;
31210;SDS011;17836;50.948;3.946;2022-12-18T00:32:00;120.95;;;59.85;;
31210;SDS011;17836;50.948;3.946;2022-12-18T00:34:25;114.75;;;58.63;;
31210;SDS011;17836;50.948;3.946;2022-12-18T00:36:51;115.00;;;57.42;;
31210;SDS011;17836;50.948;3.946;2022-12-18T00:39:17;119.15;;;58.45;;
31210;SDS011;17836;50.948;3.946;2022-12-18T00:41:42;113.93;;;59.47;;
31210;SDS011;17836;50.948;3.946;2022-12-18T00:44:26;124.70;;;57.83;;
31210;SDS011;17836;50.948;3.946;2022-12-18T00:46:51;120.28;;;57.67;;
31210;SDS011;17836;50.948;3.946;2022-12-18T00:49:18;110.57;;;55.00;;
31210;SDS011;17836;50.948;3.946;2022-12-18T00:51:44;114.85;;;57.22;;
31210;SDS011;17836;50.948;3.946;2022-12-18T00:54:09;120.70;;;58.15;;
31210;SDS011;17836;50.948;3.946;2022-12-18T00:56:35;116.82;;;57.17;;
31210;SDS011;17836;50.948;3.946;2022-12-18T00:59:01;108.93;;;56.03;;
31210;SDS011;17836;50.948;3.946;2022-12-18T01:01:26;119.97;;;60.33;;
31210;SDS011;17836;50.948;3.946;2022-12-18T01:03:52;110.68;;;56.47;;
31210;SDS011;17836;50.948;3.946;2022-12-18T01:06:17;131.07;;;62.03;;
31210;SDS011;17836;50.948;3.946;2022-12-18T01:08:42;132.00;;;63.65;;
31210;SDS011;17836;50.948;3.946;2022-12-18T01:11:09;129.77;;;63.20;;
31210;SDS011;17836;50.948;3.946;2022-12-18T01:13:34;121.53;;;59.53;;
31210;SDS011;17836;50.948;3.946;2022-12-18T01:15:59;123.18;;;62.28;;
31210;SDS011;17836;50.948;3.946;2022-12-18T01:18:25;112.32;;;57.38;;
31210;SDS011;17836;50.948;3.946;2022-12-18T01:20:50;117.18;;;58.90;;
31210;SDS011;17836;50.948;3.946;2022-12-18T01:23:15;118.60;;;58.40;;
31210;SDS011;17836;50.948;3.946;2022-12-18T01:25:41;104.47;;;54.53;;
31210;SDS011;17836;50.948;3.946;2022-12-18T01:28:06;106.85;;;56.13;;
31210;SDS011;17836;50.948;3.946;2022-12-18T01:30:31;112.15;;;56.88;;
31210;SDS011;17836;50.948;3.946;2022-12-18T01:32:56;106.97;;;56.72;;
31210;SDS011;17836;50.948;3.946;2022-12-18T01:35:22;102.25;;;54.40;;
31210;SDS011;17836;50.948;3.946;2022-12-18T01:37:47;108.15;;;55.17;;
31210;SDS011;17836;50.948;3.946;2022-12-18T01:40:13;109.38;;;57.60;;
31210;SDS011;17836;50.948;3.946;2022-12-18T01:42:38;109.80;;;55.47;;
31210;SDS011;17836;50.948;3.946;2022-12-18T01:47:39;105.22;;;53.33;;
31210;SDS011;17836;50.948;3.946;2022-12-18T01:52:51;105.13;;;56.80;;
31210;SDS011;17836;50.948;3.946;2022-12-18T01:55:18;117.45;;;56.60;;
31210;SDS011;17836;50.948;3.946;2022-12-18T01:57:44;108.32;;;54.53;;
31210;SDS011;17836;50.948;3.946;2022-12-18T02:00:12;111.72;;;55.63;;
31210;SDS011;17836;50.948;3.946;2022-12-18T02:02:38;109.30;;;56.67;;
31210;SDS011;17836;50.948;3.946;2022-12-18T02:05:04;113.35;;;55.70;;
31210;SDS011;17836;50.948;3.946;2022-12-18T02:07:34;111.80;;;56.17;;
31210;SDS011;17836;50.948;3.946;2022-12-18T02:12:42;118.65;;;58.83;;
31210;SDS011;17836;50.948;3.946;2022-12-18T02:17:43;111.88;;;55.22;;
31210;SDS011;17836;50.948;3.946;2022-12-18T02:22:51;111.18;;;55.17;;
31210;SDS011;17836;50.948;3.946;2022-12-18T02:28:06;103.57;;;53.08;;
31210;SDS011;17836;50.948;3.946;2022-12-18T02:30:33;101.70;;;54.53;;
31210;SDS011;17836;50.948;3.946;2022-12-18T02:33:00;109.55;;;52.53;;
31210;SDS011;17836;50.948;3.946;2022-12-18T02:35:27;97.55;;;51.63;;
31210;SDS011;17836;50.948;3.946;2022-12-18T02:37:54;99.80;;;51.40;;
31210;SDS011;17836;50.948;3.946;2022-12-18T02:40:20;107.07;;;50.20;;
31210;SDS011;17836;50.948;3.946;2022-12-18T02:42:46;100.45;;;50.67;;
31210;SDS011;17836;50.948;3.946;2022-12-18T02:45:11;100.45;;;51.38;;
31210;SDS011;17836;50.948;3.946;2022-12-18T02:47:38;98.47;;;50.93;;
31210;SDS011;17836;50.948;3.946;2022-12-18T02:52:39;104.45;;;48.42;;
31210;SDS011;17836;50.948;3.946;2022-12-18T02:57:58;101.10;;;48.28;;
31210;SDS011;17836;50.948;3.946;2022-12-18T03:00:28;95.28;;;45.65;;
31210;SDS011;17836;50.948;3.946;2022-12-18T03:05:40;91.83;;;46.40;;
31210;SDS011;17836;50.948;3.946;2022-12-18T03:08:18;99.00;;;48.45;;
31210;SDS011;17836;50.948;3.946;2022-12-18T03:11:03;89.75;;;45.33;;
31210;SDS011;17836;50.948;3.946;2022-12-18T03:13:51;91.25;;;45.53;;
31210;SDS011;17836;50.948;3.946;2022-12-18T03:16:16;88.70;;;44.05;;
31210;SDS011;17836;50.948;3.946;2022-12-18T03:18:44;90.47;;;45.55;;
31210;SDS011;17836;50.948;3.946;2022-12-18T03:21:11;91.82;;;48.15;;
31210;SDS011;17836;50.948;3.946;2022-12-18T03:23:42;101.45;;;50.72;;
31210;SDS011;17836;50.948;3.946;2022-12-18T03:26:10;102.35;;;51.95;;
31210;SDS011;17836;50.948;3.946;2022-12-18T03:28:39;100.95;;;51.55;;
31210;SDS011;17836;50.948;3.946;2022-12-18T03:31:07;95.55;;;49.83;;
31210;SDS011;17836;50.948;3.946;2022-12-18T03:33:38;94.65;;;48.95;;
31210;SDS011;17836;50.948;3.946;2022-12-18T03:38:30;91.30;;;45.78;;
31210;SDS011;17836;50.948;3.946;2022-12-18T03:48:44;88.68;;;45.17;;
31210;SDS011;17836;50.948;3.946;2022-12-18T03:51:15;86.53;;;45.05;;
31210;SDS011;17836;50.948;3.946;2022-12-18T03:56:07;92.63;;;44.60;;
31210;SDS011;17836;50.948;3.946;2022-12-18T03:58:33;92.68;;;43.63;;
31210;SDS011;17836;50.948;3.946;2022-12-18T04:01:00;90.50;;;43.95;;
31210;SDS011;17836;50.948;3.946;2022-12-18T04:03:26;89.35;;;44.33;;
31210;SDS011;17836;50.948;3.946;2022-12-18T04:05:54;89.32;;;44.88;;
31210;SDS011;17836;50.948;3.946;2022-12-18T04:08:20;93.22;;;45.45;;
31210;SDS011;17836;50.948;3.946;2022-12-18T04:10:45;85.47;;;43.60;;
31210;SDS011;17836;50.948;3.946;2022-12-18T04:13:11;86.80;;;43.90;;
31210;SDS011;17836;50.948;3.946;2022-12-18T04:15:36;92.75;;;44.20;;
31210;SDS011;17836;50.948;3.946;2022-12-18T04:18:02;87.60;;;45.30;;
31210;SDS011;17836;50.948;3.946;2022-12-18T04:20:28;92.95;;;45.70;;
31210;SDS011;17836;50.948;3.946;2022-12-18T04:22:53;83.53;;;43.58;;
31210;SDS011;17836;50.948;3.946;2022-12-18T04:25:18;88.80;;;42.63;;
31210;SDS011;17836;50.948;3.946;2022-12-18T04:27:44;82.43;;;42.53;;
31210;SDS011;17836;50.948;3.946;2022-12-18T04:30:09;83.57;;;41.17;;
31210;SDS011;17836;50.948;3.946;2022-12-18T04:32:35;82.20;;;41.65;;
31210;SDS011;17836;50.948;3.946;2022-12-18T04:35:00;87.70;;;43.78;;
31210;SDS011;17836;50.948;3.946;2022-12-18T04:37:25;85.45;;;43.50;;
31210;SDS011;17836;50.948;3.946;2022-12-18T04:39:51;81.65;;;41.55;;
31210;SDS011;17836;50.948;3.946;2022-12-18T04:42:17;81.10;;;39.95;;
31210;SDS011;17836;50.948;3.946;2022-12-18T04:44:42;82.90;;;42.58;;
31210;SDS011;17836;50.948;3.946;2022-12-18T04:47:08;82.10;;;40.42;;
31210;SDS011;17836;50.948;3.946;2022-12-18T04:49:33;82.72;;;41.45;;
31210;SDS011;17836;50.948;3.946;2022-12-18T04:51:59;80.05;;;37.90;;
31210;SDS011;17836;50.948;3.946;2022-12-18T04:54:24;78.82;;;38.03;;
31210;SDS011;17836;50.948;3.946;2022-12-18T04:56:50;74.88;;;36.70;;
31210;SDS011;17836;50.948;3.946;2022-12-18T04:59:15;69.18;;;35.30;;
31210;SDS011;17836;50.948;3.946;2022-12-18T05:01:40;69.00;;;35.15;;
31210;SDS011;17836;50.948;3.946;2022-12-18T05:04:06;63.47;;;34.13;;
31210;SDS011;17836;50.948;3.946;2022-12-18T05:06:31;63.55;;;31.63;;
31210;SDS011;17836;50.948;3.946;2022-12-18T05:08:56;59.15;;;30.83;;
31210;SDS011;17836;50.948;3.946;2022-12-18T05:11:22;65.38;;;31.73;;
31210;SDS011;17836;50.948;3.946;2022-12-18T05:13:47;62.20;;;33.05;;
31210;SDS011;17836;50.948;3.946;2022-12-18T05:16:13;62.10;;;30.33;;
31210;SDS011;17836;50.948;3.946;2022-12-18T05:18:38;56.58;;;29.98;;
31210;SDS011;17836;50.948;3.946;2022-12-18T05:21:03;64.18;;;31.50;;
31210;SDS011;17836;50.948;3.946;2022-12-18T05:23:29;64.50;;;31.73;;
31210;SDS011;17836;50.948;3.946;2022-12-18T05:25:55;60.63;;;32.03;;
31210;SDS011;17836;50.948;3.946;2022-12-18T05:28:21;58.13;;;32.30;;
31210;SDS011;17836;50.948;3.946;2022-12-18T05:30:51;61.10;;;31.55;;
31210;SDS011;17836;50.948;3.946;2022-12-18T05:33:17;63.88;;;31.92;;
31210;SDS011;17836;50.948;3.946;2022-12-18T05:35:43;64.40;;;33.13;;
31210;SDS011;17836;50.948;3.946;2022-12-18T05:38:09;64.03;;;32.30;;
31210;SDS011;17836;50.948;3.946;2022-12-18T05:40:34;62.25;;;30.85;;
31210;SDS011;17836;50.948;3.946;2022-12-18T05:42:59;62.55;;;31.05;;
31210;SDS011;17836;50.948;3.946;2022-12-18T05:45:25;60.72;;;31.23;;
31210;SDS011;17836;50.948;3.946;2022-12-18T05:47:51;63.90;;;31.02;;
31210;SDS011;17836;50.948;3.946;2022-12-18T05:50:16;61.17;;;31.35;;
31210;SDS011;17836;50.948;3.946;2022-12-18T05:52:41;69.70;;;32.00;;
31210;SDS011;17836;50.948;3.946;2022-12-18T05:55:07;64.80;;;32.35;;
31210;SDS011;17836;50.948;3.946;2022-12-18T05:57:32;60.00;;;30.33;;
31210;SDS011;17836;50.948;3.946;2022-12-18T05:59:58;52.40;;;30.35;;
31210;SDS011;17836;50.948;3.946;2022-12-18T06:02:23;63.58;;;31.95;;
31210;SDS011;17836;50.948;3.946;2022-12-18T06:04:48;67.18;;;33.20;;
31210;SDS011;17836;50.948;3.946;2022-12-18T06:07:13;67.95;;;33.47;;
31210;SDS011;17836;50.948;3.946;2022-12-18T06:09:39;65.32;;;33.53;;
31210;SDS011;17836;50.948;3.946;2022-12-18T06:12:04;63.65;;;31.20;;
31210;SDS011;17836;50.948;3.946;2022-12-18T06:14:29;58.65;;;31.35;;
31210;SDS011;17836;50.948;3.946;2022-12-18T06:16:55;64.20;;;31.27;;
31210;SDS011;17836;50.948;3.946;2022-12-18T06:19:20;61.70;;;30.65;;
31210;SDS011;17836;50.948;3.946;2022-12-18T06:21:46;63.22;;;32.53;;
31210;SDS011;17836;50.948;3.946;2022-12-18T06:24:11;57.97;;;31.40;;
31210;SDS011;17836;50.948;3.946;2022-12-18T06:26:38;66.00;;;33.40;;
31210;SDS011;17836;50.948;3.946;2022-12-18T06:29:03;61.42;;;30.98;;
31210;SDS011;17836;50.948;3.946;2022-12-18T06:31:29;60.38;;;31.13;;
31210;SDS011;17836;50.948;3.946;2022-12-18T06:33:54;55.70;;;29.05;;
31210;SDS011;17836;50.948;3.946;2022-12-18T06:36:20;59.35;;;31.27;;
31210;SDS011;17836;50.948;3.946;2022-12-18T06:38:45;60.03;;;32.00;;
31210;SDS011;17836;50.948;3.946;2022-12-18T06:41:12;64.00;;;31.20;;
31210;SDS011;17836;50.948;3.946;2022-12-18T06:43:37;62.08;;;30.88;;
31210;SDS011;17836;50.948;3.946;2022-12-18T06:46:03;60.17;;;29.27;;
31210;SDS011;17836;50.948;3.946;2022-12-18T06:48:29;63.40;;;30.15;;
31210;SDS011;17836;50.948;3.946;2022-12-18T06:50:55;54.47;;;29.25;;
31210;SDS011;17836;50.948;3.946;2022-12-18T06:53:20;56.35;;;28.38;;
31210;SDS011;17836;50.948;3.946;2022-12-18T06:55:47;60.97;;;29.00;;
31210;SDS011;17836;50.948;3.946;2022-12-18T06:58:12;55.88;;;28.13;;
31210;SDS011;17836;50.948;3.946;2022-12-18T07:00:37;54.03;;;27.98;;
31210;SDS011;17836;50.948;3.946;2022-12-18T07:03:03;59.78;;;32.33;;
31210;SDS011;17836;50.948;3.946;2022-12-18T07:05:29;57.78;;;31.23;;
31210;SDS011;17836;50.948;3.946;2022-12-18T07:07:54;53.70;;;29.30;;
31210;SDS011;17836;50.948;3.946;2022-12-18T07:10:22;56.17;;;30.58;;
31210;SDS011;17836;50.948;3.946;2022-12-18T07:12:47;56.53;;;31.73;;
31210;SDS011;17836;50.948;3.946;2022-12-18T07:15:15;63.15;;;31.77;;
31210;SDS011;17836;50.948;3.946;2022-12-18T07:17:41;65.22;;;33.80;;
31210;SDS011;17836;50.948;3.946;2022-12-18T07:20:06;65.28;;;31.20;;
31210;SDS011;17836;50.948;3.946;2022-12-18T07:22:32;53.85;;;29.13;;
31210;SDS011;17836;50.948;3.946;2022-12-18T07:24:57;55.67;;;29.90;;
31210;SDS011;17836;50.948;3.946;2022-12-18T07:27:22;65.53;;;31.05;;
31210;SDS011;17836;50.948;3.946;2022-12-18T07:29:48;80.32;;;40.78;;
31210;SDS011;17836;50.948;3.946;2022-12-18T07:32:14;67.10;;;35.72;;
31210;SDS011;17836;50.948;3.946;2022-12-18T07:34:42;84.63;;;43.20;;
31210;SDS011;17836;50.948;3.946;2022-12-18T07:37:07;78.28;;;38.47;;
31210;SDS011;17836;50.948;3.946;2022-12-18T07:39:32;88.30;;;46.55;;
31210;SDS011;17836;50.948;3.946;2022-12-18T07:42:01;114.53;;;56.30;;
31210;SDS011;17836;50.948;3.946;2022-12-18T07:44:45;117.20;;;56.03;;
31210;SDS011;17836;50.948;3.946;2022-12-18T07:47:11;119.82;;;57.80;;
31210;SDS011;17836;50.948;3.946;2022-12-18T07:49:36;98.57;;;46.30;;
31210;SDS011;17836;50.948;3.946;2022-12-18T07:52:01;59.03;;;32.50;;
31210;SDS011;17836;50.948;3.946;2022-12-18T07:54:27;66.10;;;34.97;;
31210;SDS011;17836;50.948;3.946;2022-12-18T07:56:52;56.13;;;30.30;;
31210;SDS011;17836;50.948;3.946;2022-12-18T07:59:18;53.75;;;30.23;;
31210;SDS011;17836;50.948;3.946;2022-12-18T08:01:43;61.20;;;34.00;;
31210;SDS011;17836;50.948;3.946;2022-12-18T08:04:09;65.25;;;37.35;;
31210;SDS011;17836;50.948;3.946;2022-12-18T08:06:37;71.50;;;40.28;;
31210;SDS011;17836;50.948;3.946;2022-12-18T08:09:03;78.82;;;41.17;;
31210;SDS011;17836;50.948;3.946;2022-12-18T08:11:28;71.85;;;40.10;;
31210;SDS011;17836;50.948;3.946;2022-12-18T08:13:54;65.28;;;36.53;;
31210;SDS011;17836;50.948;3.946;2022-12-18T08:16:20;65.60;;;36.17;;
31210;SDS011;17836;50.948;3.946;2022-12-18T08:18:45;62.25;;;34.92;;
31210;SDS011;17836;50.948;3.946;2022-12-18T08:21:20;56.80;;;33.08;;
31210;SDS011;17836;50.948;3.946;2022-12-18T08:23:48;62.40;;;33.33;;
31210;SDS011;17836;50.948;3.946;2022-12-18T08:26:14;56.63;;;32.30;;
31210;SDS011;17836;50.948;3.946;2022-12-18T08:28:40;57.15;;;32.83;;
31210;SDS011;17836;50.948;3.946;2022-12-18T08:31:05;50.67;;;28.20;;
31210;SDS011;17836;50.948;3.946;2022-12-18T08:33:31;52.83;;;27.35;;
31210;SDS011;17836;50.948;3.946;2022-12-18T08:35:57;48.45;;;27.25;;
31210;SDS011;17836;50.948;3.946;2022-12-18T08:38:23;54.33;;;28.10;;
31210;SDS011;17836;50.948;3.946;2022-12-18T08:40:48;53.70;;;29.77;;
31210;SDS011;17836;50.948;3.946;2022-12-18T08:43:14;50.92;;;29.83;;
31210;SDS011;17836;50.948;3.946;2022-12-18T08:45:58;45.40;;;25.20;;
31210;SDS011;17836;50.948;3.946;2022-12-18T08:48:23;43.92;;;24.02;;
31210;SDS011;17836;50.948;3.946;2022-12-18T08:50:55;46.97;;;24.85;;
31210;SDS011;17836;50.948;3.946;2022-12-18T08:53:23;49.00;;;25.30;;
31210;SDS011;17836;50.948;3.946;2022-12-18T08:55:49;57.55;;;30.35;;
31210;SDS011;17836;50.948;3.946;2022-12-18T08:58:14;46.38;;;25.77;;
31210;SDS011;17836;50.948;3.946;2022-12-18T09:00:39;57.23;;;31.80;;
31210;SDS011;17836;50.948;3.946;2022-12-18T09:03:05;56.88;;;31.40;;
31210;SDS011;17836;50.948;3.946;2022-12-18T09:05:30;44.65;;;25.25;;
31210;SDS011;17836;50.948;3.946;2022-12-18T09:07:55;38.53;;;21.75;;
31210;SDS011;17836;50.948;3.946;2022-12-18T09:10:21;36.78;;;20.13;;
31210;SDS011;17836;50.948;3.946;2022-12-18T09:12:47;37.45;;;21.20;;
31210;SDS011;17836;50.948;3.946;2022-12-18T09:15:12;46.15;;;24.55;;
31210;SDS011;17836;50.948;3.946;2022-12-18T09:17:37;40.88;;;21.60;;
31210;SDS011;17836;50.948;3.946;2022-12-18T09:20:02;42.57;;;23.27;;
31210;SDS011;17836;50.948;3.946;2022-12-18T09:22:28;46.03;;;26.52;;
31210;SDS011;17836;50.948;3.946;2022-12-18T09:24:53;44.55;;;24.38;;
31210;SDS011;17836;50.948;3.946;2022-12-18T09:27:22;41.40;;;24.73;;
31210;SDS011;17836;50.948;3.946;2022-12-18T09:29:47;42.00;;;24.52;;
31210;SDS011;17836;50.948;3.946;2022-12-18T09:32:13;40.42;;;22.80;;
31210;SDS011;17836;50.948;3.946;2022-12-18T09:34:39;34.55;;;21.80;;
31210;SDS011;17836;50.948;3.946;2022-12-18T09:37:04;42.90;;;25.05;;
31210;SDS011;17836;50.948;3.946;2022-12-18T09:39:32;70.97;;;33.05;;
31210;SDS011;17836;50.948;3.946;2022-12-18T09:41:57;81.13;;;38.97;;
31210;SDS011;17836;50.948;3.946;2022-12-18T09:44:27;70.75;;;34.67;;
31210;SDS011;17836;50.948;3.946;2022-12-18T09:49:40;92.72;;;43.30;;
31210;SDS011;17836;50.948;3.946;2022-12-18T09:54:36;74.88;;;38.17;;
31210;SDS011;17836;50.948;3.946;2022-12-18T09:57:03;58.67;;;31.92;;
31210;SDS011;17836;50.948;3.946;2022-12-18T09:59:33;51.72;;;29.73;;
31210;SDS011;17836;50.948;3.946;2022-12-18T10:01:59;77.50;;;41.83;;
31210;SDS011;17836;50.948;3.946;2022-12-18T10:04:24;57.43;;;30.57;;
31210;SDS011;17836;50.948;3.946;2022-12-18T10:06:56;78.95;;;41.67;;
31210;SDS011;17836;50.948;3.946;2022-12-18T10:09:25;47.28;;;26.92;;
31210;SDS011;17836;50.948;3.946;2022-12-18T10:11:59;29.77;;;20.38;;
31210;SDS011;17836;50.948;3.946;2022-12-18T10:20:13;27.35;;;18.15;;
31210;SDS011;17836;50.948;3.946;2022-12-18T10:25:18;29.52;;;18.25;;
31210;SDS011;17836;50.948;3.946;2022-12-18T10:27:45;27.23;;;18.02;;
31210;SDS011;17836;50.948;3.946;2022-12-18T10:30:19;37.55;;;23.02;;
31210;SDS011;17836;50.948;3.946;2022-12-18T10:32:44;32.33;;;20.60;;
31210;SDS011;17836;50.948;3.946;2022-12-18T10:35:14;30.35;;;18.80;;
31210;SDS011;17836;50.948;3.946;2022-12-18T10:37:58;25.40;;;16.35;;
31210;SDS011;17836;50.948;3.946;2022-12-18T10:40:24;29.63;;;17.30;;
31210;SDS011;17836;50.948;3.946;2022-12-18T10:43:02;31.52;;;18.65;;
31210;SDS011;17836;50.948;3.946;2022-12-18T10:45:28;35.45;;;21.92;;
31210;SDS011;17836;50.948;3.946;2022-12-18T10:47:53;32.60;;;18.20;;
31210;SDS011;17836;50.948;3.946;2022-12-18T10:50:20;37.17;;;21.33;;
31210;SDS011;17836;50.948;3.946;2022-12-18T10:52:59;35.58;;;21.70;;
31210;SDS011;17836;50.948;3.946;2022-12-18T10:55:35;43.35;;;24.05;;
31210;SDS011;17836;50.948;3.946;2022-12-18T10:58:13;35.30;;;21.52;;
31210;SDS011;17836;50.948;3.946;2022-12-18T11:00:39;29.55;;;18.70;;
31210;SDS011;17836;50.948;3.946;2022-12-18T11:03:07;32.85;;;20.23;;
31210;SDS011;17836;50.948;3.946;2022-12-18T11:05:50;40.28;;;20.55;;
31210;SDS011;17836;50.948;3.946;2022-12-18T11:08:25;27.98;;;17.25;;
31210;SDS011;17836;50.948;3.946;2022-12-18T11:10:51;25.35;;;17.13;;
31210;SDS011;17836;50.948;3.946;2022-12-18T11:13:20;25.05;;;16.85;;
31210;SDS011;17836;50.948;3.946;2022-12-18T11:15:46;25.95;;;16.17;;
31210;SDS011;17836;50.948;3.946;2022-12-18T11:18:20;28.50;;;16.52;;
31210;SDS011;17836;50.948;3.946;2022-12-18T11:20:51;29.30;;;17.48;;
31210;SDS011;17836;50.948;3.946;2022-12-18T11:23:17;29.58;;;17.85;;
31210;SDS011;17836;50.948;3.946;2022-12-18T11:25:50;27.15;;;17.40;;
31210;SDS011;17836;50.948;3.946;2022-12-18T11:33:40;25.80;;;16.15;;
31210;SDS011;17836;50.948;3.946;2022-12-18T11:36:07;23.52;;;15.75;;
31210;SDS011;17836;50.948;3.946;2022-12-18T11:38:34;23.73;;;14.75;;
31210;SDS011;17836;50.948;3.946;2022-12-18T11:43:45;25.05;;;14.90;;
31210;SDS011;17836;50.948;3.946;2022-12-18T11:46:15;25.60;;;17.42;;
31210;SDS011;17836;50.948;3.946;2022-12-18T11:48:49;25.55;;;16.90;;
31210;SDS011;17836;50.948;3.946;2022-12-18T11:51:20;28.90;;;16.25;;
31210;SDS011;17836;50.948;3.946;2022-12-18T11:53:48;24.27;;;16.20;;
31210;SDS011;17836;50.948;3.946;2022-12-18T12:03:58;29.02;;;16.60;;
31210;SDS011;17836;50.948;3.946;2022-12-18T12:09:16;27.58;;;15.88;;
31210;SDS011;17836;50.948;3.946;2022-12-18T12:25:27;20.98;;;14.50;;
31210;SDS011;17836;50.948;3.946;2022-12-18T12:31:08;27.45;;;16.58;;
31210;SDS011;17836;50.948;3.946;2022-12-18T12:33:47;31.67;;;19.10;;
31210;SDS011;17836;50.948;3.946;2022-12-18T12:36:24;28.63;;;17.10;;
31210;SDS011;17836;50.948;3.946;2022-12-18T12:38:58;28.77;;;16.33;;
31210;SDS011;17836;50.948;3.946;2022-12-18T12:41:26;26.60;;;17.10;;
31210;SDS011;17836;50.948;3.946;2022-12-18T12:44:15;29.58;;;16.73;;
31210;SDS011;17836;50.948;3.946;2022-12-18T12:46:41;32.58;;;18.17;;
31210;SDS011;17836;50.948;3.946;2022-12-18T12:49:26;29.98;;;19.23;;
31210;SDS011;17836;50.948;3.946;2022-12-18T12:51:55;25.60;;;15.77;;
31210;SDS011;17836;50.948;3.946;2022-12-18T12:54:23;28.88;;;16.23;;
31210;SDS011;17836;50.948;3.946;2022-12-18T13:04:15;22.55;;;14.82;;
31210;SDS011;17836;50.948;3.946;2022-12-18T13:09:18;27.30;;;15.77;;
31210;SDS011;17836;50.948;3.946;2022-12-18T13:11:44;27.85;;;17.73;;
31210;SDS011;17836;50.948;3.946;2022-12-18T13:14:29;28.77;;;16.73;;
31210;SDS011;17836;50.948;3.946;2022-12-18T13:19:42;31.17;;;17.77;;
31210;SDS011;17836;50.948;3.946;2022-12-18T13:22:20;29.02;;;17.92;;
31210;SDS011;17836;50.948;3.946;2022-12-18T13:24:46;34.50;;;19.50;;
31210;SDS011;17836;50.948;3.946;2022-12-18T13:30:11;30.73;;;18.48;;
31210;SDS011;17836;50.948;3.946;2022-12-18T13:32:50;33.83;;;21.80;;
31210;SDS011;17836;50.948;3.946;2022-12-18T13:37:59;37.92;;;21.80;;
31210;SDS011;17836;50.948;3.946;2022-12-18T13:45:44;31.80;;;19.23;;
31210;SDS011;17836;50.948;3.946;2022-12-18T13:48:17;36.10;;;19.55;;
31210;SDS011;17836;50.948;3.946;2022-12-18T13:50:43;38.33;;;20.50;;
31210;SDS011;17836;50.948;3.946;2022-12-18T13:56:17;36.83;;;19.92;;
31210;SDS011;17836;50.948;3.946;2022-12-18T13:58:42;37.45;;;21.10;;
31210;SDS011;17836;50.948;3.946;2022-12-18T14:01:23;39.55;;;22.83;;
31210;SDS011;17836;50.948;3.946;2022-12-18T14:04:07;36.28;;;19.88;;
31210;SDS011;17836;50.948;3.946;2022-12-18T14:06:33;41.50;;;21.02;;
31210;SDS011;17836;50.948;3.946;2022-12-18T14:08:59;40.85;;;21.15;;
31210;SDS011;17836;50.948;3.946;2022-12-18T14:11:24;36.30;;;20.23;;
31210;SDS011;17836;50.948;3.946;2022-12-18T14:13:50;33.75;;;18.58;;
31210;SDS011;17836;50.948;3.946;2022-12-18T14:16:15;38.83;;;21.27;;
31210;SDS011;17836;50.948;3.946;2022-12-18T14:21:15;40.75;;;21.52;;
31210;SDS011;17836;50.948;3.946;2022-12-18T14:23:41;35.63;;;20.52;;
31210;SDS011;17836;50.948;3.946;2022-12-18T14:26:26;39.67;;;20.27;;
31210;SDS011;17836;50.948;3.946;2022-12-18T14:28:54;41.13;;;21.98;;
31210;SDS011;17836;50.948;3.946;2022-12-18T14:31:21;39.72;;;21.60;;
31210;SDS011;17836;50.948;3.946;2022-12-18T14:33:47;35.90;;;21.42;;
31210;SDS011;17836;50.948;3.946;2022-12-18T14:36:20;36.63;;;21.13;;
31210;SDS011;17836;50.948;3.946;2022-12-18T14:38:52;45.42;;;21.58;;
31210;SDS011;17836;50.948;3.946;2022-12-18T14:41:19;39.28;;;20.55;;
31210;SDS011;17836;50.948;3.946;2022-12-18T14:43:46;37.33;;;20.83;;
31210;SDS011;17836;50.948;3.946;2022-12-18T14:48:51;43.42;;;23.80;;
31210;SDS011;17836;50.948;3.946;2022-12-18T14:51:23;37.38;;;21.52;;
31210;SDS011;17836;50.948;3.946;2022-12-18T14:53:58;38.13;;;22.40;;
31210;SDS011;17836;50.948;3.946;2022-12-18T14:56:29;37.95;;;20.23;;
31210;SDS011;17836;50.948;3.946;2022-12-18T15:03:53;43.25;;;22.08;;
31210;SDS011;17836;50.948;3.946;2022-12-18T15:06:24;36.92;;;20.95;;
31210;SDS011;17836;50.948;3.946;2022-12-18T15:08:51;34.78;;;18.83;;
31210;SDS011;17836;50.948;3.946;2022-12-18T15:11:33;39.25;;;22.00;;
31210;SDS011;17836;50.948;3.946;2022-12-18T15:13:59;39.97;;;21.60;;
31210;SDS011;17836;50.948;3.946;2022-12-18T15:16:25;43.60;;;23.17;;
31210;SDS011;17836;50.948;3.946;2022-12-18T15:18:51;44.05;;;22.50;;
31210;SDS011;17836;50.948;3.946;2022-12-18T15:21:18;42.78;;;22.73;;
31210;SDS011;17836;50.948;3.946;2022-12-18T15:26:09;42.33;;;22.77;;
31210;SDS011;17836;50.948;3.946;2022-12-18T15:28:56;34.42;;;19.10;;
31210;SDS011;17836;50.948;3.946;2022-12-18T15:31:32;35.90;;;20.15;;
31210;SDS011;17836;50.948;3.946;2022-12-18T15:34:13;37.78;;;19.90;;
31210;SDS011;17836;50.948;3.946;2022-12-18T15:36:39;42.03;;;21.35;;
31210;SDS011;17836;50.948;3.946;2022-12-18T15:39:05;39.35;;;20.90;;
31210;SDS011;17836;50.948;3.946;2022-12-18T15:41:31;38.33;;;19.98;;
31210;SDS011;17836;50.948;3.946;2022-12-18T15:43:57;39.40;;;20.45;;
31210;SDS011;17836;50.948;3.946;2022-12-18T15:46:23;38.17;;;20.15;;
31210;SDS011;17836;50.948;3.946;2022-12-18T15:48:50;33.13;;;18.77;;
31210;SDS011;17836;50.948;3.946;2022-12-18T15:54:11;40.85;;;20.65;;
31210;SDS011;17836;50.948;3.946;2022-12-18T15:56:38;41.65;;;23.45;;
31210;SDS011;17836;50.948;3.946;2022-12-18T15:59:22;46.10;;;23.65;;
31210;SDS011;17836;50.948;3.946;2022-12-18T16:01:48;42.03;;;21.83;;
31210;SDS011;17836;50.948;3.946;2022-12-18T16:04:14;37.75;;;21.17;;
31210;SDS011;17836;50.948;3.946;2022-12-18T16:06:41;41.47;;;21.35;;
31210;SDS011;17836;50.948;3.946;2022-12-18T16:09:07;40.40;;;20.63;;
31210;SDS011;17836;50.948;3.946;2022-12-18T16:11:33;48.03;;;23.58;;
31210;SDS011;17836;50.948;3.946;2022-12-18T16:16:31;40.45;;;22.10;;
31210;SDS011;17836;50.948;3.946;2022-12-18T16:18:56;42.95;;;22.92;;
31210;SDS011;17836;50.948;3.946;2022-12-18T16:21:21;42.63;;;23.30;;
31210;SDS011;17836;50.948;3.946;2022-12-18T16:23:47;47.92;;;24.13;;
31210;SDS011;17836;50.948;3.946;2022-12-18T16:26:12;49.97;;;25.03;;
31210;SDS011;17836;50.948;3.946;2022-12-18T16:28:37;44.83;;;23.20;;
31210;SDS011;17836;50.948;3.946;2022-12-18T16:31:03;42.25;;;22.27;;